Gilchrist, Texas
Current Conditions -  °F | °C
As of 7:35 AM on Thursday 30 Oct 2014 (Local Time) from KXIH Reporting Station
Scattered Clouds Scattered Clouds  
Wind Chill: 70°   Ceiling: Unl
Heat Index: 70°   Visibility: 10mi
Dew Point: 55°   Wind: 17mph
Humidity: 60%   Direction: 80°E
Pressure: 30.09"   Gusts: NA
Location:  29.51°N, 94.49°W
Report Text: KXIH 301235Z AUTO 08015KT 10SM SCT029 SCT049 21/13 A3009 RMK A01
Loading
Personal Weather Stations






























Interactive Weather Map
Tropical Storm Tracking
New forecast layout! Learn more

10-Day Weather Forecast

Advertisements
Track Severe Weather on mobile